createdAt,value
2018-09-27T00:00:11.049Z,11.70
2018-09-27T00:02:39.534Z,11.60
2018-09-27T00:05:07.987Z,11.60
2018-09-27T00:07:36.568Z,11.60
2018-09-27T00:10:05.070Z,11.50
2018-09-27T00:12:33.696Z,11.60
2018-09-27T00:15:02.199Z,11.50
2018-09-27T00:17:30.782Z,11.60
2018-09-27T00:19:59.298Z,11.60
2018-09-27T00:22:27.772Z,11.50
2018-09-27T00:24:56.189Z,11.50
2018-09-27T00:27:24.760Z,11.50
2018-09-27T00:29:53.201Z,11.50
2018-09-27T00:32:21.695Z,11.50
2018-09-27T00:34:50.141Z,11.50
2018-09-27T00:37:18.767Z,11.60
2018-09-27T00:39:47.250Z,11.50
2018-09-27T00:42:15.799Z,11.50
2018-09-27T00:44:44.261Z,11.50
2018-09-27T00:47:12.902Z,11.30
2018-09-27T00:49:41.342Z,11.30
2018-09-27T00:52:09.863Z,11.30
2018-09-27T00:54:38.288Z,11.30
2018-09-27T00:57:06.755Z,11.30
2018-09-27T00:59:35.243Z,11.30
2018-09-27T01:02:04.029Z,11.30
2018-09-27T01:04:32.483Z,11.30
2018-09-27T01:07:00.910Z,11.20
2018-09-27T01:09:29.495Z,11.20
2018-09-27T01:11:58.306Z,11.20
2018-09-27T01:14:26.784Z,11.20
2018-09-27T01:16:55.360Z,11.20
2018-09-27T01:19:23.863Z,11.20
2018-09-27T01:21:52.276Z,11.10
2018-09-27T01:24:20.732Z,11.10
2018-09-27T01:26:49.269Z,11.10
2018-09-27T01:29:17.759Z,11.10
2018-09-27T01:31:46.211Z,11.00
2018-09-27T01:34:14.811Z,10.90
2018-09-27T01:36:43.454Z,10.80
2018-09-27T01:39:11.920Z,10.80
2018-09-27T01:41:40.417Z,10.60
2018-09-27T01:44:08.918Z,10.50
2018-09-27T01:46:37.422Z,10.40
2018-09-27T01:49:06.102Z,10.40
2018-09-27T01:51:35.050Z,10.40
2018-09-27T01:54:03.560Z,10.40
2018-09-27T01:56:32.152Z,10.40
2018-09-27T01:59:00.612Z,10.30
2018-09-27T02:01:29.043Z,10.40
2018-09-27T02:03:57.768Z,10.50
2018-09-27T02:06:26.370Z,10.40
2018-09-27T02:08:55.187Z,10.50
2018-09-27T02:11:23.639Z,10.50
2018-09-27T02:13:52.166Z,10.50
2018-09-27T02:16:20.570Z,10.60
2018-09-27T02:18:48.986Z,10.50
2018-09-27T02:21:17.608Z,10.50
2018-09-27T02:23:46.066Z,10.50
2018-09-27T02:26:14.662Z,10.50
2018-09-27T02:28:43.184Z,10.50
2018-09-27T02:31:11.700Z,10.50
2018-09-27T02:33:40.180Z,10.50
2018-09-27T02:36:08.612Z,10.50
2018-09-27T02:38:37.116Z,10.50
2018-09-27T02:41:05.580Z,10.50
2018-09-27T02:43:34.005Z,10.40
2018-09-27T02:46:02.475Z,10.40
2018-09-27T02:48:31.223Z,10.40
2018-09-27T02:50:59.657Z,10.40
2018-09-27T02:53:28.232Z,10.40
2018-09-27T02:55:56.799Z,10.40
2018-09-27T02:58:25.394Z,10.40
2018-09-27T03:00:53.897Z,10.40
2018-09-27T03:03:22.552Z,10.30
2018-09-27T03:05:51.007Z,10.20
2018-09-27T03:08:19.527Z,10.20
2018-09-27T03:10:47.967Z,10.20
2018-09-27T03:13:16.568Z,10.30
2018-09-27T03:15:44.993Z,10.20
2018-09-27T03:18:13.423Z,10.30
2018-09-27T03:20:41.896Z,10.30
2018-09-27T03:23:10.487Z,10.20
2018-09-27T03:25:38.948Z,10.30
2018-09-27T03:28:07.536Z,10.30
2018-09-27T03:30:36.088Z,10.20
2018-09-27T03:33:04.556Z,10.20
2018-09-27T03:35:32.990Z,10.20
2018-09-27T03:38:01.417Z,10.20
2018-09-27T03:40:29.920Z,10.20
2018-09-27T03:42:58.519Z,10.20
2018-09-27T03:45:26.951Z,10.20
2018-09-27T03:47:55.540Z,10.20
2018-09-27T03:50:23.991Z,10.20
2018-09-27T03:52:52.473Z,10.20
2018-09-27T03:55:20.879Z,10.20
2018-09-27T03:57:49.410Z,10.10
2018-09-27T04:00:17.986Z,10.10
2018-09-27T04:02:46.445Z,10.00
2018-09-27T04:05:14.861Z,10.10
2018-09-27T04:07:43.286Z,10.10
2018-09-27T04:10:11.819Z,10.10
2018-09-27T04:12:40.316Z,10.10
2018-09-27T04:15:08.896Z,10.10
2018-09-27T04:17:37.429Z,10.10
2018-09-27T04:20:06.066Z,10.20
2018-09-27T04:22:34.470Z,10.20
2018-09-27T04:25:02.918Z,10.20
2018-09-27T04:27:31.346Z,10.20
2018-09-27T04:29:59.818Z,10.20
2018-09-27T04:32:28.306Z,10.20
2018-09-27T04:34:56.732Z,10.10
2018-09-27T04:37:25.165Z,10.10
2018-09-27T04:39:53.713Z,10.20
2018-09-27T04:42:22.259Z,10.20
2018-09-27T04:44:50.700Z,10.20
2018-09-27T04:47:19.114Z,10.20
2018-09-27T04:49:47.770Z,10.20
2018-09-27T04:52:16.174Z,10.20
2018-09-27T04:54:44.733Z,10.30
2018-09-27T04:57:13.186Z,10.20
2018-09-27T04:59:41.694Z,10.20
2018-09-27T05:02:10.114Z,10.20
2018-09-27T05:04:38.810Z,10.20
2018-09-27T05:07:07.230Z,10.20
2018-09-27T05:09:35.705Z,10.30
2018-09-27T05:12:04.306Z,10.30
2018-09-27T05:14:32.759Z,10.30
2018-09-27T05:17:01.272Z,10.40
2018-09-27T05:19:29.771Z,10.40
2018-09-27T05:21:58.263Z,10.40
2018-09-27T05:24:26.680Z,10.40
2018-09-27T05:26:55.168Z,10.40
2018-09-27T05:29:23.645Z,10.50
2018-09-27T05:31:52.094Z,10.40
2018-09-27T05:34:20.542Z,10.40
2018-09-27T05:36:48.994Z,10.50
2018-09-27T05:39:17.416Z,10.50
2018-09-27T05:41:45.955Z,10.60
2018-09-27T05:44:14.389Z,10.60
2018-09-27T05:46:42.817Z,10.60
2018-09-27T05:49:11.311Z,10.60
2018-09-27T05:51:39.905Z,10.70
2018-09-27T05:54:08.515Z,10.70
2018-09-27T05:56:37.155Z,10.80
2018-09-27T05:59:05.599Z,10.80
2018-09-27T06:01:34.101Z,10.90
2018-09-27T06:04:02.524Z,10.90
2018-09-27T06:06:31.212Z,10.90
2018-09-27T06:08:59.787Z,11.00
2018-09-27T06:11:28.575Z,11.00
2018-09-27T06:13:57.144Z,11.00
2018-09-27T06:16:25.643Z,11.10
2018-09-27T06:18:54.085Z,11.20
2018-09-27T06:21:22.524Z,11.20
2018-09-27T06:23:51.005Z,11.30
2018-09-27T06:26:19.548Z,11.40
2018-09-27T06:28:48.042Z,11.50
2018-09-27T06:31:16.579Z,11.50
2018-09-27T06:33:45.003Z,11.60
2018-09-27T06:36:13.482Z,11.70
2018-09-27T06:38:42.021Z,11.70
2018-09-27T06:41:10.688Z,11.70
2018-09-27T06:43:39.203Z,11.80
2018-09-27T06:46:08.130Z,11.80
2018-09-27T06:48:36.843Z,11.90
2018-09-27T06:51:05.443Z,12.00
2018-09-27T06:53:33.894Z,12.10
2018-09-27T06:56:02.443Z,12.20
2018-09-27T06:58:31.013Z,12.30
2018-09-27T07:00:59.497Z,12.40
2018-09-27T07:03:28.187Z,12.60
2018-09-27T07:05:56.712Z,12.70
2018-09-27T07:08:25.211Z,12.80
2018-09-27T07:10:53.822Z,12.90
2018-09-27T07:13:22.270Z,13.10
2018-09-27T07:15:50.688Z,13.20
2018-09-27T07:18:19.147Z,13.30
2018-09-27T07:20:47.610Z,13.50
2018-09-27T07:23:16.319Z,13.60
2018-09-27T07:25:44.815Z,13.80
2018-09-27T07:28:13.277Z,13.90
2018-09-27T07:30:41.805Z,14.00
2018-09-27T07:33:10.243Z,14.20
2018-09-27T07:35:38.898Z,14.30
2018-09-27T07:38:07.423Z,14.40
2018-09-27T07:40:36.090Z,14.50
2018-09-27T07:43:04.508Z,14.60
2018-09-27T07:45:33.021Z,14.70
2018-09-27T07:48:01.485Z,14.80
2018-09-27T07:50:30.014Z,14.90
2018-09-27T07:52:58.675Z,15.10
2018-09-27T07:55:27.208Z,15.20
2018-09-27T07:57:55.645Z,15.30
2018-09-27T08:00:24.072Z,15.30
2018-09-27T08:02:52.593Z,15.40
2018-09-27T08:05:21.123Z,15.40
2018-09-27T08:07:49.971Z,15.60
2018-09-27T08:10:18.570Z,15.70
2018-09-27T08:12:47.056Z,15.80
2018-09-27T08:15:15.506Z,15.90
2018-09-27T08:17:43.950Z,16.00
2018-09-27T08:20:12.362Z,16.00
2018-09-27T08:22:40.832Z,16.20
2018-09-27T08:25:09.257Z,16.30
2018-09-27T08:27:37.828Z,16.40
2018-09-27T08:30:07.412Z,16.50
2018-09-27T08:32:35.941Z,16.60
2018-09-27T08:35:04.970Z,16.70
2018-09-27T08:37:33.405Z,16.80
2018-09-27T08:40:01.831Z,16.80
2018-09-27T08:42:30.409Z,17.00
2018-09-27T08:44:59.025Z,17.00
2018-09-27T08:47:27.600Z,17.20
2018-09-27T08:49:56.150Z,17.20
2018-09-27T08:52:24.649Z,17.30
2018-09-27T08:54:53.158Z,17.40
2018-09-27T08:57:21.560Z,17.40
2018-09-27T08:59:49.999Z,17.50
2018-09-27T09:02:18.426Z,17.50
2018-09-27T09:04:46.890Z,17.60
2018-09-27T09:07:15.320Z,17.70
2018-09-27T09:09:43.783Z,17.60
2018-09-27T09:12:12.382Z,17.60
2018-09-27T09:14:40.979Z,17.70
2018-09-27T09:17:09.395Z,17.90
2018-09-27T09:19:37.902Z,18.00
2018-09-27T09:22:06.488Z,18.10
2018-09-27T09:24:34.903Z,18.20
2018-09-27T09:27:03.478Z,18.20
2018-09-27T09:29:31.969Z,18.40
2018-09-27T09:32:00.554Z,18.40
2018-09-27T09:34:29.000Z,18.50
2018-09-27T09:36:57.404Z,18.60
2018-09-27T09:39:25.919Z,18.60
2018-09-27T09:41:54.359Z,18.70
2018-09-27T09:44:22.879Z,18.70
2018-09-27T09:46:51.316Z,18.80
2018-09-27T09:49:19.791Z,18.90
2018-09-27T09:51:48.234Z,18.90
2018-09-27T09:54:16.692Z,19.00
2018-09-27T09:56:45.184Z,19.10
2018-09-27T09:59:13.614Z,19.10
2018-09-27T10:01:42.080Z,19.20
2018-09-27T10:04:10.527Z,19.20
2018-09-27T10:06:38.967Z,19.20
2018-09-27T10:09:08.468Z,19.20
2018-09-27T10:11:36.916Z,19.30
2018-09-27T10:14:05.310Z,19.20
2018-09-27T10:16:34.235Z,19.30
2018-09-27T10:19:02.727Z,19.30
2018-09-27T10:21:31.338Z,19.40
2018-09-27T10:23:59.973Z,19.40
2018-09-27T10:26:28.437Z,19.40
2018-09-27T10:28:57.015Z,19.40
2018-09-27T10:31:25.504Z,19.40
2018-09-27T10:33:53.941Z,19.50
2018-09-27T10:36:22.375Z,19.50
2018-09-27T10:38:50.802Z,19.30
2018-09-27T10:41:19.247Z,19.30
2018-09-27T10:43:47.652Z,19.40
2018-09-27T10:46:16.071Z,19.50
2018-09-27T10:48:44.497Z,19.50
2018-09-27T10:51:13.033Z,19.50
2018-09-27T10:53:41.634Z,19.60
2018-09-27T10:56:10.122Z,19.70
2018-09-27T10:58:38.538Z,19.70
2018-09-27T11:01:07.100Z,19.70
2018-09-27T11:03:35.596Z,19.70
2018-09-27T11:06:04.020Z,19.70
2018-09-27T11:08:32.528Z,19.70
2018-09-27T11:11:01.016Z,19.80
2018-09-27T11:13:29.680Z,19.90
2018-09-27T11:15:58.111Z,19.90
2018-09-27T11:18:26.535Z,20.00
2018-09-27T11:20:55.003Z,20.10
2018-09-27T11:23:23.446Z,20.30
2018-09-27T11:25:51.846Z,20.30
2018-09-27T11:28:20.285Z,20.30
2018-09-27T11:30:54.204Z,20.50
2018-09-27T11:33:23.083Z,20.60
2018-09-27T11:35:51.524Z,20.80
2018-09-27T11:38:19.989Z,21.00
2018-09-27T11:40:48.426Z,21.10
2018-09-27T11:43:16.875Z,21.20
2018-09-27T11:45:45.322Z,21.50
2018-09-27T11:48:14.573Z,21.50
2018-09-27T11:50:43.125Z,21.70
2018-09-27T11:53:11.589Z,21.90
2018-09-27T11:55:40.026Z,22.00
2018-09-27T11:58:08.474Z,22.10
2018-09-27T12:00:37.363Z,22.40
2018-09-27T12:03:05.968Z,22.70
2018-09-27T12:05:34.427Z,22.90
2018-09-27T12:08:02.921Z,23.00
2018-09-27T12:10:31.893Z,23.10
2018-09-27T12:13:01.160Z,23.00
2018-09-27T12:15:29.588Z,23.10
2018-09-27T12:17:58.000Z,23.30
2018-09-27T12:20:26.552Z,23.60
2018-09-27T12:22:54.955Z,23.60
2018-09-27T12:25:23.944Z,23.70
2018-09-27T12:27:53.176Z,23.90
2018-09-27T12:30:21.590Z,23.90
2018-09-27T12:32:50.646Z,24.00
2018-09-27T12:35:19.746Z,24.00
2018-09-27T12:37:48.729Z,24.50
2018-09-27T12:40:17.732Z,25.00
2018-09-27T12:42:46.812Z,25.30
2018-09-27T12:45:16.149Z,25.50
2018-09-27T12:47:45.186Z,25.70
2018-09-27T12:50:14.245Z,26.00
2018-09-27T12:52:43.371Z,26.20
2018-09-27T12:55:12.745Z,26.10
2018-09-27T12:57:42.031Z,26.10
2018-09-27T13:00:11.069Z,26.30
2018-09-27T13:02:40.275Z,26.40
2018-09-27T13:05:09.647Z,26.50
2018-09-27T13:07:38.954Z,26.40
2018-09-27T13:10:08.012Z,26.60
2018-09-27T13:12:37.270Z,26.70
2018-09-27T13:15:06.483Z,26.70
2018-09-27T13:17:35.999Z,26.90
2018-09-27T13:20:05.297Z,27.10
2018-09-27T13:22:34.340Z,27.10
2018-09-27T13:25:03.378Z,27.00
2018-09-27T13:27:32.538Z,27.20
2018-09-27T13:30:01.648Z,27.40
2018-09-27T13:32:30.921Z,27.60
2018-09-27T13:35:00.120Z,27.80
2018-09-27T13:37:29.133Z,27.90
2018-09-27T13:39:58.167Z,28.10
2018-09-27T13:42:27.330Z,28.10
2018-09-27T13:44:56.311Z,28.20
2018-09-27T13:47:25.496Z,28.40
2018-09-27T13:49:54.517Z,28.70
2018-09-27T13:52:23.702Z,29.00
2018-09-27T13:54:52.682Z,29.20
2018-09-27T13:57:21.712Z,29.30
2018-09-27T13:59:50.880Z,29.30
2018-09-27T14:02:19.884Z,29.60
2018-09-27T14:04:48.849Z,30.10
2018-09-27T14:07:17.839Z,30.50
2018-09-27T14:09:46.805Z,31.60
2018-09-27T14:12:15.813Z,33.10
2018-09-27T14:14:44.904Z,34.30
2018-09-27T14:17:14.029Z,35.30
2018-09-27T14:19:43.578Z,36.50
2018-09-27T14:22:12.551Z,37.20
2018-09-27T14:24:41.568Z,37.80
2018-09-27T14:27:10.830Z,38.40
2018-09-27T14:29:39.906Z,38.80
2018-09-27T14:32:08.876Z,39.40
2018-09-27T14:34:38.057Z,39.40
2018-09-27T14:37:07.031Z,39.50
2018-09-27T14:39:36.049Z,39.80
2018-09-27T14:42:05.101Z,39.40
2018-09-27T14:44:34.147Z,39.60
2018-09-27T14:47:03.132Z,39.60
2018-09-27T14:49:32.157Z,39.40
2018-09-27T14:52:01.225Z,39.50
2018-09-27T14:54:30.199Z,39.70
2018-09-27T14:56:59.174Z,39.80
2018-09-27T14:59:28.169Z,39.60
2018-09-27T15:01:57.335Z,38.60
2018-09-27T15:04:26.601Z,39.00
2018-09-27T15:06:55.759Z,38.80
2018-09-27T15:09:24.917Z,38.90
2018-09-27T15:11:54.131Z,38.50
2018-09-27T15:14:23.310Z,38.80
2018-09-27T15:16:52.439Z,39.20
2018-09-27T15:19:21.471Z,38.40
2018-09-27T15:21:50.513Z,37.80
2018-09-27T15:24:19.535Z,37.70
2018-09-27T15:26:48.615Z,37.00
2018-09-27T15:29:17.617Z,37.10
2018-09-27T15:31:46.648Z,37.20
2018-09-27T15:39:13.195Z,31.90
2018-09-27T15:41:42.253Z,30.00
2018-09-27T15:44:11.397Z,28.50
2018-09-27T15:49:09.132Z,26.10
2018-09-27T15:54:06.854Z,24.70
2018-09-27T16:04:02.554Z,23.10
2018-09-27T16:09:00.377Z,22.50
2018-09-27T16:11:29.372Z,22.30
2018-09-27T16:13:58.329Z,22.00
2018-09-27T16:16:27.375Z,21.70
2018-09-27T16:21:24.610Z,21.30
2018-09-27T16:26:21.167Z,20.90
2018-09-27T16:33:46.316Z,20.50
2018-09-27T16:36:14.804Z,20.50
2018-09-27T16:38:43.593Z,20.40
2018-09-27T16:41:12.194Z,20.20
2018-09-27T16:43:40.631Z,20.10
2018-09-27T16:46:09.152Z,20.00
2018-09-27T16:48:37.658Z,19.90
2018-09-27T16:51:06.179Z,19.70
2018-09-27T16:53:35.008Z,19.60
2018-09-27T16:56:03.583Z,19.50
2018-09-27T16:58:32.080Z,19.40
2018-09-27T17:01:00.591Z,19.30
2018-09-27T17:03:29.272Z,19.20
2018-09-27T17:05:57.780Z,19.10
2018-09-27T17:08:26.328Z,19.00
2018-09-27T17:10:54.856Z,18.90
2018-09-27T17:13:23.736Z,18.80
2018-09-27T17:15:52.250Z,18.70
2018-09-27T17:18:22.456Z,18.60
2018-09-27T17:20:50.996Z,18.60
2018-09-27T17:23:20.582Z,18.50
2018-09-27T17:25:49.256Z,18.40
2018-09-27T17:28:17.909Z,18.40
2018-09-27T17:30:46.444Z,18.30
2018-09-27T17:33:15.082Z,18.20
2018-09-27T17:35:44.125Z,18.10
2018-09-27T17:38:12.883Z,18.00
2018-09-27T17:40:41.553Z,17.90
2018-09-27T17:43:10.273Z,17.90
2018-09-27T17:45:38.839Z,17.80
2018-09-27T17:48:07.383Z,17.70
2018-09-27T17:50:36.035Z,17.70
2018-09-27T17:53:04.657Z,17.60
2018-09-27T17:55:33.386Z,17.50
2018-09-27T17:58:02.118Z,17.50
2018-09-27T18:00:30.754Z,17.40
2018-09-27T18:02:59.426Z,17.30
2018-09-27T18:05:27.903Z,17.30
2018-09-27T18:07:56.666Z,17.30
2018-09-27T18:10:25.282Z,17.20
2018-09-27T18:12:53.853Z,17.10
2018-09-27T18:15:22.447Z,17.10
2018-09-27T18:17:51.057Z,17.00
2018-09-27T18:20:19.532Z,17.00
2018-09-27T18:22:48.019Z,17.00
2018-09-27T18:25:16.690Z,17.00
2018-09-27T18:27:45.180Z,16.90
2018-09-27T18:30:13.678Z,16.90
2018-09-27T18:32:42.208Z,16.90
2018-09-27T18:35:10.760Z,16.80
2018-09-27T18:37:39.390Z,16.80
2018-09-27T18:40:08.426Z,16.70
2018-09-27T18:42:37.488Z,16.70
2018-09-27T18:45:06.035Z,16.70
2018-09-27T18:47:35.041Z,16.60
2018-09-27T18:50:03.753Z,16.60
2018-09-27T18:52:32.398Z,16.60
2018-09-27T18:55:00.978Z,16.50
2018-09-27T18:57:29.556Z,16.50
2018-09-27T18:59:58.374Z,16.50
2018-09-27T19:02:27.544Z,16.40
2018-09-27T19:04:55.995Z,16.40
2018-09-27T19:07:24.788Z,16.40
2018-09-27T19:09:53.550Z,16.30
2018-09-27T19:12:22.218Z,16.30
2018-09-27T19:14:51.094Z,16.30
2018-09-27T19:17:19.718Z,16.30
2018-09-27T19:19:48.287Z,16.20
2018-09-27T19:22:16.748Z,16.20
2018-09-27T19:24:45.366Z,16.10
2018-09-27T19:27:13.927Z,16.10
2018-09-27T19:29:42.441Z,16.00
2018-09-27T19:32:13.799Z,16.00
2018-09-27T19:34:42.353Z,15.90
2018-09-27T19:37:10.991Z,16.00
2018-09-27T19:39:39.534Z,16.00
2018-09-27T19:42:08.125Z,16.10
2018-09-27T19:44:36.707Z,16.10
2018-09-27T19:47:05.115Z,16.10
2018-09-27T19:49:33.781Z,16.10
2018-09-27T19:52:02.632Z,16.10
2018-09-27T19:54:31.352Z,16.10
2018-09-27T19:56:59.998Z,16.00
2018-09-27T19:59:28.622Z,15.90
2018-09-27T20:01:57.894Z,15.80
2018-09-27T20:04:26.375Z,15.70
2018-09-27T20:06:54.953Z,15.70
2018-09-27T20:09:23.440Z,15.60
2018-09-27T20:11:51.906Z,15.60
2018-09-27T20:14:20.501Z,15.50
2018-09-27T20:16:49.190Z,15.50
2018-09-27T20:19:17.880Z,15.50
2018-09-27T20:21:46.547Z,15.40
2018-09-27T20:24:15.234Z,15.30
2018-09-27T20:26:43.826Z,15.30
2018-09-27T20:29:12.540Z,15.30
2018-09-27T20:31:41.142Z,15.30
2018-09-27T20:34:09.710Z,15.20
2018-09-27T20:36:38.318Z,15.20
2018-09-27T20:39:07.076Z,15.20
2018-09-27T20:41:35.545Z,15.20
2018-09-27T20:44:03.992Z,15.10
2018-09-27T20:46:32.559Z,15.10
2018-09-27T20:49:02.940Z,15.10
2018-09-27T20:51:31.403Z,15.00
2018-09-27T20:53:59.957Z,15.00
2018-09-27T20:56:28.554Z,13.90
2018-09-27T20:58:57.091Z,14.90
2018-09-27T21:01:25.541Z,14.90
2018-09-27T21:03:53.942Z,14.90
2018-09-27T21:06:22.408Z,14.90
2018-09-27T21:08:50.999Z,14.80
2018-09-27T21:11:19.510Z,14.80
2018-09-27T21:13:47.919Z,14.80
2018-09-27T21:16:16.363Z,14.70
2018-09-27T21:18:44.959Z,14.70
2018-09-27T21:21:13.423Z,14.60
2018-09-27T21:23:41.830Z,14.60
2018-09-27T21:26:10.741Z,16.60
2018-09-27T21:28:39.243Z,14.50
2018-09-27T21:31:07.859Z,14.40
2018-09-27T21:33:36.314Z,14.40
2018-09-27T21:36:04.812Z,14.40
2018-09-27T21:38:33.206Z,14.40
2018-09-27T21:41:01.676Z,14.40
2018-09-27T21:43:30.220Z,14.30
2018-09-27T21:45:58.659Z,14.10
2018-09-27T21:48:27.151Z,14.20
2018-09-27T21:50:55.730Z,14.20
2018-09-27T21:53:24.591Z,14.10
2018-09-27T21:55:53.105Z,14.00
2018-09-27T21:58:21.613Z,14.00
2018-09-27T22:00:52.118Z,14.00
2018-09-27T22:03:21.895Z,14.00
2018-09-27T22:05:50.501Z,14.00
2018-09-27T22:08:18.911Z,14.30
2018-09-27T22:10:47.877Z,14.30
2018-09-27T22:13:16.480Z,14.40
2018-09-27T22:15:48.983Z,14.40
2018-09-27T22:18:17.469Z,14.30
2018-09-27T22:20:45.970Z,14.20
2018-09-27T22:23:14.471Z,14.10
2018-09-27T22:25:43.282Z,14.00
2018-09-27T22:28:11.818Z,13.90
2018-09-27T22:30:40.260Z,13.90
2018-09-27T22:33:08.739Z,13.80
2018-09-27T22:35:37.242Z,13.80
2018-09-27T22:38:05.740Z,13.80
2018-09-27T22:40:34.191Z,13.70
2018-09-27T22:43:02.719Z,13.70
2018-09-27T22:45:31.363Z,13.70
2018-09-27T22:47:59.867Z,13.70
2018-09-27T22:50:28.367Z,13.70
2018-09-27T22:52:56.856Z,13.60
2018-09-27T22:55:25.448Z,13.60
2018-09-27T22:57:54.011Z,13.60
2018-09-27T23:00:22.635Z,13.60
2018-09-27T23:02:51.495Z,13.60
2018-09-27T23:05:20.089Z,13.60
2018-09-27T23:07:48.533Z,13.50
2018-09-27T23:10:16.992Z,13.50
2018-09-27T23:12:45.523Z,13.50
2018-09-27T23:15:14.102Z,13.50
2018-09-27T23:17:42.712Z,13.50
2018-09-27T23:20:11.735Z,13.50
2018-09-27T23:22:40.236Z,13.40
2018-09-27T23:25:09.010Z,13.40
2018-09-27T23:27:37.494Z,13.30
2018-09-27T23:30:06.172Z,13.30
2018-09-27T23:32:34.788Z,13.30
2018-09-27T23:35:03.256Z,13.20
2018-09-27T23:37:31.768Z,13.20
2018-09-27T23:40:00.228Z,13.20
2018-09-27T23:42:28.764Z,13.20
2018-09-27T23:44:57.467Z,13.20
2018-09-27T23:47:25.940Z,13.20
2018-09-27T23:49:54.379Z,13.10
2018-09-27T23:52:22.846Z,13.20
2018-09-27T23:54:51.331Z,13.20
2018-09-27T23:57:19.931Z,13.10
2018-09-27T23:59:48.392Z,13.10
